EW5385 Weather Reports


time (UTC)temp
C
wind
direction
speed
KPH
gust
KPH
rain 1hr
cm
rain 24hr
cm
rain mn
cm
humidity
%
barometer
mb
20190420150128 19 136 3.2 6.4 0.08 1.91 0.08 85 1018.4
20190420144602 19 177 4.8 9.7 0.00 1.83 0.00 85 1018.3
20190420143138 19 192 4.8 6.4 0.00 1.83 0.00 85 1018.4
20190420141641 19 171 0.0 4.8 0.00 1.83 0.00 85 1018.3
20190420140123 19 176 4.8 9.7 0.03 1.83 0.00 85 1018.2
20190420134606 19 173 1.6 8.0 0.03 2.29 1.83 85 1018.3
20190420133047 19 182 3.2 8.0 0.03 2.29 1.83 85 1018.4
20190420131550 19 186 3.2 8.0 0.03 2.29 1.83 85 1018.3
20190420130111 19 176 3.2 8.0 0.00 2.26 1.80 85 1018.4
20190420124543 19 196 3.2 6.4 0.00 2.26 1.80 85 1018.5
20190420123121 19 145 1.6 8.0 0.00 2.26 1.80 85 1018.7
20190420121539 19 150 3.2 6.4 0.00 2.26 1.80 85 1018.5
20190420120037 19 179 3.2 6.4 0.00 2.26 1.80 85 1018.7
20190420114542 19 145 4.8 11.3 0.00 2.26 1.80 85 1018.6
20190420113054 19 137 4.8 9.7 0.10 2.26 1.80 85 1018.7
20190420111541 19 146 4.8 11.3 0.13 2.26 1.80 85 1018.8
20190420110045 19 170 3.2 8.0 0.20 2.29 1.80 85 1018.8
20190420104626 19 202 3.2 12.9 0.23 2.29 1.80 85 1019.0
20190420103048 19 195 4.8 11.3 0.13 2.18 1.70 85 1019.1
20190420101548 18 191 6.4 11.3 0.10 2.16 1.68 86 1019.1
20190420100042 18 164 1.6 6.4 0.05 2.11 1.60 86 1019.0
20190420094542 18 119 1.6 6.4 0.03 2.08 1.57 86 1018.7
20190420093040 18 124 1.6 9.7 0.03 2.08 1.57 86 1018.7
20190420091554 18 115 4.8 12.9 0.05 2.08 1.57 86 1018.6
20190420090031 18 110 9.7 20.9 0.13 2.11 1.55 86 1018.3
20190420084543 18 110 6.4 14.5 0.23 2.11 1.55 87 1017.9
20190420083105 18 108 6.4 17.7 0.33 2.11 1.55 88 1018.1
20190420081555 19 141 12.9 29.0 0.41 2.08 1.52 89 1018.0
20190420080033 20 110 8.0 20.9 0.36 2.18 1.42 87 1017.7
20190420074536 20 88 0.0 4.8 0.38 2.08 1.32 87 1017.5
20190420073026 20 114 3.2 16.1 0.46 1.98 1.22 88 1017.6
20190420071526 21 125 3.2 17.7 0.36 1.88 1.12 88 1017.5
20190420070029 21 120 3.2 17.7 0.30 2.39 1.07 88 1017.4
20190420064552 21 207 8.0 22.5 0.18 2.26 0.94 88 1017.0
20190420063035 22 151 8.0 16.1 0.00 2.08 0.76 88 1016.9
20190420061602 21 121 11.3 17.7 0.10 2.08 0.76 88 1016.8
20190420060019 22 110 6.4 17.7 0.10 2.18 0.76 88 1016.7
20190420054516 21 135 9.7 24.1 0.10 2.18 0.76 88 1016.9
20190420053033 21 126 6.4 14.5 0.10 2.18 0.76 88 1016.8
20190420051519 21 161 9.7 22.5 0.00 2.08 0.66 88 1016.8
20190420050022 23 113 14.5 32.2 0.00 2.08 0.66 84 1016.8
20190420044514 22 136 11.3 24.1 0.03 2.08 0.66 86 1016.6
20190420043028 23 109 8.0 19.3 0.15 2.08 0.66 85 1016.5
20190420041516 23 131 12.9 29.0 0.15 2.08 0.66 85 1016.6
20190420040029 22 164 8.0 22.5 0.15 2.26 0.66 87 1016.6
20190420034508 22 81 12.9 37.0 0.13 2.24 0.64 85 1016.8
20190420033005 25 100 9.7 24.1 0.00 2.11 0.51 78 1016.7
20190420031718 24 76 16.1 27.4 0.00 2.11 0.51 78 1017.0
20190420030213 23 128 12.9 30.6 0.05 2.11 0.51 81 1017.2
20190420024613 23 104 12.9 25.7 0.05 2.11 0.51 83 1017.4
20190420023156 22 123 12.9 27.4 0.05 2.11 0.51 87 1017.5
20190420021645 21 107 11.3 32.2 0.05 2.11 0.51 88 1017.7
20190420020453 22 83 9.7 29.0 0.00 2.06 0.46 85 1018.0
20190420014636 23 141 9.7 24.1 0.08 2.06 0.46 84 1018.2
20190420013208 22 138 11.3 20.9 0.23 2.06 0.46 87 1018.2
20190420011645 22 209 8.0 20.9 0.33 2.06 0.46 88 1018.4
20190420010121 21 169 6.4 17.7 0.33 2.06 0.46 87 1018.6
20190420004723 21 117 8.0 16.1 0.23 1.96 0.36 88 1019.1
20190420003204 22 122 8.0 22.5 0.08 1.80 0.20 86 1019.3
20190420001637 23 104 12.9 25.7 0.00 1.73 0.13 81 1019.1
20190420000128 23 115 8.0 19.3 0.00 1.73 0.13 85 1019.1
20190419234638 23 119 8.0 20.9 0.00 1.73 0.13 84 1019.2
20190419233155 23 127 12.9 25.7 0.00 1.73 0.13 85 1019.3
20190419231646 22 128 11.3 27.4 0.00 1.73 0.13 86 1019.4
20190419230052 22 138 8.0 20.9 0.00 1.73 0.13 87 1019.4
20190419224601 21 157 4.8 22.5 0.00 1.73 0.13 88 1019.4
20190419223045 21 112 6.4 17.7 0.00 1.73 0.13 89 1019.4
20190419221527 21 175 6.4 14.5 0.00 1.73 0.13 88 1019.3
20190419220029 20 163 3.2 11.3 0.00 1.73 0.13 87 1019.1
20190419214550 20 147 4.8 12.9 0.00 1.73 0.13 86 1019.1
20190419213033 19 154 6.4 12.9 0.00 1.73 0.13 85 1019.0
20190419211518 19 156 4.8 11.3 0.00 1.73 0.13 85 1018.9
20190419210009 18 171 4.8 9.7 0.00 1.73 0.13 85 1018.6
20190419204510 18 198 4.8 9.7 0.00 1.73 0.13 85 1018.6
20190419203014 18 139 3.2 6.4 0.00 1.73 0.13 85 1018.4
20190419201511 18 138 3.2 8.0 0.00 1.73 0.13 85 1018.3
20190419200010 18 215 3.2 8.0 0.00 1.73 0.13 85 1018.2
20190419194507 18 181 3.2 8.0 0.00 1.73 0.13 85 1018.1
20190419193006 18 181 4.8 9.7 0.00 1.73 0.13 85 1017.9
20190419191503 18 162 4.8 8.0 0.00 1.73 0.13 85 1017.9
20190419190010 18 193 3.2 9.7 0.00 1.73 0.13 85 1017.8
20190419184501 18 193 3.2 8.0 0.08 1.73 0.13 85 1017.6
20190419183144 18 193 4.8 9.7 0.13 1.73 0.13 85 1017.5
20190419181645 18 190 4.8 8.0 0.13 1.73 0.13 85 1017.6
20190419180206 18 164 3.2 8.0 0.13 1.73 0.13 85 1017.6
20190419174705 18 205 1.6 6.4 0.05 1.65 0.05 85 1017.6
20190419173335 18 189 4.8 9.7 0.00 1.60 0.00 85 1017.6
20190419171626 18 188 6.4 11.3 0.00 1.60 0.00 85 1017.5
20190419170140 18 212 6.4 11.3 0.00 1.60 0.00 85 1017.6
20190419164648 18 158 6.4 11.3 0.00 1.60 0.00 85 1017.6
20190419163137 18 183 6.4 9.7 0.00 1.60 0.00 85 1017.6
20190419161648 18 166 4.8 8.0 0.00 1.60 0.00 85 1017.6
20190419160133 18 180 6.4 11.3 0.00 1.60 0.00 85 1017.8
20190419154614 18 196 3.2 8.0 0.00 1.60 0.00 85 1018.0
20190419153109 18 174 4.8 9.7 0.00 1.60 0.00 85 1018.2
20190419151601 19 155 4.8 8.0 0.00 1.60 0.00 85 1018.3